Terminal Aerodrome Forecast
Issued by NWS

Home | Current Version | Previous Version | Text Only | Print | Product List | Glossary On
Versions: 1 2 3 4 5 6 7 8 9 10 11 12 13 14 15 16 17 18 19 20 21 22 23 24 25 26 27 28 29 30 31
000
FTUS44 KFWD 290303 AAA
TAFAFW
TAF AMD
KAFW 290303Z 2903/2924 13014G24KT P6SM SCT050 BKN080
     FM290600 16013KT 5SM BR VCSH OVC015
     FM290800 15011KT 4SM -TSRA BKN020 OVC045CB
     FM291100 16013KT 6SM BR VCSH BKN050
     FM291500 19013KT P6SM SCT080 BKN300=

USA.gov is the U.S. government's official web portal to all federal, state and local government web resources and services.